Stotesbury, Missouri
Current Conditions -  °F | °C
As of 4:35 PM on Sunday 23 Nov 2014 (Local Time) from KPTS Reporting Station
Haze Haze  
Wind Chill: 58°   Ceiling: 4600
Heat Index: 58°   Visibility: 5mi
Dew Point: 58°   Wind: 0mph
Humidity: 100%   Direction: NA
Pressure: 29.3"   Gusts: NA
Location:  38.0389°N, 94.5457°W
Report Text: KPTS 232235Z AUTO 00000KT 5SM BR SCT020 BKN046 OVC055 15/15 A2930 RMK AO2 P0011 T01470147
Loading
Personal Weather Stations






























Interactive Weather Map New forecast layout! Learn more

10-Day Weather Forecast

Advertisements
Track Severe Weather on mobile